Mission Square, Washington
Current Conditions -  °F | °C
As of 7:55 PM on Friday 24 Oct 2014 (Local Time) from KEAT Reporting Station
Light Rain Light Rain  
Wind Chill: 50°   Ceiling: 4800
Heat Index: 50°   Visibility: 10mi
Dew Point: 43°   Wind: 5mph
Humidity: 77%   Direction: 300°WNW
Pressure: 29.98"   Gusts: NA
Location:  47.3635°N, 120.348°W
Report Text: KEAT 250255Z AUTO 30004KT 10SM -RA FEW032 OVC048 10/06 A2998 RMK AO2 SLP158 P0001 60001 T01000061 56009
Loading
Personal Weather Stations






























Interactive Weather Map
Tropical Storm Tracking
New forecast layout! Learn more

10-Day Weather Forecast

Advertisements
Track Severe Weather on mobile